Aviation Digital Data Service (ADDS)

Output produced by TAFs form (2303 UTC 25 July 2014)
found at http://www.aviationweather.gov/adds/tafs/
 
KRIC 251739Z 2518/2618 VRB06KT P6SM SCT050 
     FM252300 17003KT P6SM SCT050 
     FM260900 20003KT 5SM BR FEW050 
     FM261300 21008KT P6SM SCT040